createdAt,value
2023-09-20T00:01:47.982Z,23.44
2023-09-20T00:05:50.581Z,23.46
2023-09-20T00:09:51.914Z,23.32
2023-09-20T00:13:54.021Z,23.36
2023-09-20T00:17:55.607Z,23.37
2023-09-20T00:21:57.055Z,23.33
2023-09-20T00:25:58.677Z,23.17
2023-09-20T00:30:00.047Z,23.23
2023-09-20T00:34:04.603Z,22.85
2023-09-20T00:38:06.833Z,22.95
2023-09-20T00:42:08.266Z,22.80
2023-09-20T00:46:12.607Z,22.93
2023-09-20T00:50:15.965Z,22.84
2023-09-20T00:54:17.985Z,22.96
2023-09-20T00:58:20.732Z,22.86
2023-09-20T01:02:22.718Z,22.80
2023-09-20T01:06:27.911Z,22.91
2023-09-20T01:10:32.668Z,22.94
2023-09-20T01:14:34.231Z,22.90
2023-09-20T01:18:35.733Z,22.80
2023-09-20T01:22:37.154Z,22.87
2023-09-20T01:26:40.665Z,22.90
2023-09-20T01:30:43.149Z,22.70
2023-09-20T01:34:46.440Z,22.87
2023-09-20T01:38:47.753Z,22.89
2023-09-20T01:42:49.620Z,22.80
2023-09-20T01:46:52.203Z,22.87
2023-09-20T01:50:53.859Z,22.80
2023-09-20T01:54:58.294Z,22.86
2023-09-20T01:59:00.808Z,22.75
2023-09-20T02:03:07.473Z,22.86
2023-09-20T02:07:10.944Z,22.82
2023-09-20T02:11:12.711Z,22.78
2023-09-20T02:15:15.474Z,22.71
2023-09-20T02:19:20.630Z,22.46
2023-09-20T02:23:22.056Z,22.61
2023-09-20T02:27:23.607Z,22.32
2023-09-20T02:31:24.930Z,22.33
2023-09-20T02:35:27.801Z,22.37
2023-09-20T02:39:29.203Z,22.23
2023-09-20T02:43:31.227Z,22.19
2023-09-20T02:47:32.664Z,21.91
2023-09-20T02:51:36.631Z,21.98
2023-09-20T02:55:40.164Z,22.02
2023-09-20T02:59:41.700Z,22.08
2023-09-20T03:03:43.141Z,22.09
2023-09-20T03:07:45.596Z,22.14
2023-09-20T03:11:46.932Z,22.15
2023-09-20T03:15:49.167Z,22.00
2023-09-20T03:19:54.773Z,22.11
2023-09-20T03:23:57.047Z,21.89
2023-09-20T03:27:58.455Z,21.80
2023-09-20T03:32:01.703Z,21.82
2023-09-20T03:36:11.594Z,21.75
2023-09-20T03:40:17.884Z,21.99
2023-09-20T03:44:20.624Z,21.86
2023-09-20T03:48:22.131Z,22.06
2023-09-20T03:52:23.561Z,22.09
2023-09-20T03:56:25.079Z,21.92
2023-09-20T04:00:29.376Z,21.76
2023-09-20T04:04:31.181Z,21.80
2023-09-20T04:08:32.631Z,21.74
2023-09-20T04:12:34.863Z,21.85
2023-09-20T04:16:37.331Z,21.83
2023-09-20T04:20:39.869Z,21.82
2023-09-20T04:24:41.901Z,21.80
2023-09-20T04:28:43.703Z,21.65
2023-09-20T04:32:45.317Z,21.82
2023-09-20T04:36:53.834Z,21.81
2023-09-20T04:40:57.891Z,21.82
2023-09-20T04:45:00.226Z,21.90
2023-09-20T04:49:01.971Z,22.03
2023-09-20T04:53:03.534Z,22.04
2023-09-20T04:57:07.997Z,22.03
2023-09-20T05:01:16.031Z,22.03
2023-09-20T05:05:17.458Z,21.84
2023-09-20T05:09:18.893Z,22.10
2023-09-20T05:13:20.225Z,22.32
2023-09-20T05:17:21.651Z,22.28
2023-09-20T05:21:22.987Z,22.29
2023-09-20T05:25:24.390Z,22.10
2023-09-20T05:29:26.727Z,22.17
2023-09-20T05:33:28.278Z,22.21
2023-09-20T05:37:29.769Z,22.50
2023-09-20T05:41:31.177Z,22.35
2023-09-20T05:45:32.577Z,22.31
2023-09-20T05:49:34.232Z,22.49
2023-09-20T05:53:35.635Z,22.49
2023-09-20T05:57:37.189Z,22.42
2023-09-20T06:01:41.393Z,22.57
2023-09-20T06:05:42.862Z,22.36
2023-09-20T06:09:44.655Z,22.24
2023-09-20T06:13:46.094Z,22.13
2023-09-20T06:17:50.608Z,22.11
2023-09-20T06:21:53.437Z,22.43
2023-09-20T06:25:54.800Z,22.30
2023-09-20T06:29:56.179Z,22.44
2023-09-20T06:33:57.549Z,22.36
2023-09-20T06:37:59.971Z,22.49
2023-09-20T06:42:01.414Z,22.91
2023-09-20T06:46:04.408Z,22.68
2023-09-20T06:50:06.244Z,22.38
2023-09-20T06:54:09.666Z,22.62
2023-09-20T06:58:19.699Z,22.56
2023-09-20T07:02:25.451Z,22.66
2023-09-20T07:06:27.871Z,23.17
2023-09-20T07:10:31.013Z,22.93
2023-09-20T07:14:32.792Z,23.06
2023-09-20T07:18:34.680Z,23.12
2023-09-20T07:22:39.601Z,23.61
2023-09-20T07:26:44.688Z,23.44
2023-09-20T07:30:46.884Z,24.03
2023-09-20T07:34:49.420Z,23.77
2023-09-20T07:38:50.916Z,23.90
2023-09-20T07:42:53.114Z,23.90
2023-09-20T07:46:54.505Z,24.26
2023-09-20T07:50:55.921Z,23.72
2023-09-20T07:54:57.748Z,24.28
2023-09-20T07:58:59.180Z,24.22
2023-09-20T08:03:00.618Z,24.27
2023-09-20T08:07:02.522Z,24.36
2023-09-20T08:11:13.125Z,24.15
2023-09-20T08:15:15.334Z,24.78
2023-09-20T08:19:16.726Z,24.99
2023-09-20T08:23:36.529Z,24.67
2023-09-20T08:27:56.293Z,24.70
2023-09-20T08:32:16.232Z,24.58
2023-09-20T08:36:36.069Z,24.73
2023-09-20T08:40:56.269Z,25.67
2023-09-20T08:45:19.810Z,26.25
2023-09-20T08:49:41.588Z,26.68
2023-09-20T08:54:02.907Z,26.15
2023-09-20T08:58:23.199Z,26.26
2023-09-20T09:02:32.101Z,26.21
2023-09-20T09:06:33.812Z,25.57
2023-09-20T09:10:35.264Z,26.69
2023-09-20T09:14:41.057Z,26.88
2023-09-20T09:18:44.595Z,26.97
2023-09-20T09:22:46.866Z,28.08
2023-09-20T09:26:49.005Z,29.89
2023-09-20T09:30:51.329Z,28.73
2023-09-20T09:34:53.119Z,29.69
2023-09-20T09:39:24.189Z,30.83
2023-09-20T09:43:31.118Z,32.52
2023-09-20T09:47:35.355Z,30.41
2023-09-20T09:51:57.248Z,31.82
2023-09-20T09:56:02.593Z,33.14
2023-09-20T10:00:06.448Z,32.05
2023-09-20T10:04:12.048Z,31.30
2023-09-20T10:08:15.586Z,31.85
2023-09-20T10:12:18.988Z,31.45
2023-09-20T10:16:21.427Z,30.35
2023-09-20T10:20:23.890Z,30.56
2023-09-20T10:24:29.867Z,30.33
2023-09-20T10:28:40.375Z,30.83
2023-09-20T10:32:45.433Z,30.15
2023-09-20T10:36:52.662Z,30.49
2023-09-20T10:41:00.998Z,31.26
2023-09-20T10:45:06.400Z,32.41
2023-09-20T10:49:08.127Z,32.46
2023-09-20T10:53:11.611Z,31.34
2023-09-20T10:57:23.514Z,30.60
2023-09-20T11:01:25.013Z,29.84
2023-09-20T11:05:30.102Z,29.21
2023-09-20T11:09:41.089Z,29.97
2023-09-20T11:13:48.027Z,31.21
2023-09-20T11:17:49.560Z,32.03
2023-09-20T11:21:52.792Z,30.76
2023-09-20T11:25:56.959Z,31.31
2023-09-20T11:30:09.664Z,31.96
2023-09-20T11:34:11.250Z,30.89
2023-09-20T11:38:12.821Z,31.08
2023-09-20T11:42:26.138Z,31.12
2023-09-20T11:46:34.654Z,32.18
2023-09-20T11:50:43.472Z,32.58
2023-09-20T11:54:44.982Z,33.51
2023-09-20T11:58:48.128Z,33.02
2023-09-20T12:02:50.872Z,32.11
2023-09-20T12:06:54.100Z,30.62
2023-09-20T12:10:55.451Z,31.01
2023-09-20T12:14:56.936Z,30.61
2023-09-20T12:19:00.289Z,31.15
2023-09-20T12:23:03.638Z,30.58
2023-09-20T12:27:06.279Z,30.28
2023-09-20T12:31:07.901Z,29.90
2023-09-20T12:35:11.760Z,30.17
2023-09-20T12:39:13.959Z,30.30
2023-09-20T12:43:18.902Z,29.29
2023-09-20T12:47:20.909Z,30.10
2023-09-20T12:51:22.500Z,29.76
2023-09-20T12:55:26.553Z,29.25
2023-09-20T12:59:28.487Z,29.55
2023-09-20T13:03:30.585Z,29.22
2023-09-20T13:07:32.115Z,29.43
2023-09-20T13:11:33.582Z,29.22
2023-09-20T13:15:35.947Z,29.26
2023-09-20T13:19:37.462Z,29.27
2023-09-20T13:23:39.132Z,29.28
2023-09-20T13:27:40.697Z,29.51
2023-09-20T13:31:42.204Z,29.63
2023-09-20T13:35:43.997Z,29.84
2023-09-20T13:39:45.488Z,29.51
2023-09-20T13:43:46.833Z,28.62
2023-09-20T13:47:50.639Z,29.52
2023-09-20T13:51:53.076Z,29.19
2023-09-20T13:56:03.611Z,29.68
2023-09-20T14:00:12.566Z,29.60
2023-09-20T14:04:14.035Z,29.89
2023-09-20T14:08:15.535Z,29.37
2023-09-20T14:12:16.857Z,29.64
2023-09-20T14:16:18.477Z,29.59
2023-09-20T14:20:22.445Z,29.96
2023-09-20T14:24:26.213Z,29.89
2023-09-20T14:28:27.605Z,30.15
2023-09-20T14:32:30.032Z,30.14
2023-09-20T14:36:31.436Z,30.13
2023-09-20T14:40:34.092Z,29.38
2023-09-20T14:44:35.664Z,29.62
2023-09-20T14:48:38.416Z,29.46
2023-09-20T14:52:41.305Z,29.96
2023-09-20T14:56:44.600Z,29.55
2023-09-20T15:00:46.009Z,29.85
2023-09-20T15:04:48.253Z,29.53
2023-09-20T15:08:50.374Z,30.03
2023-09-20T15:13:00.657Z,29.63
2023-09-20T15:17:03.293Z,29.81
2023-09-20T15:21:08.453Z,29.83
2023-09-20T15:25:11.449Z,29.37
2023-09-20T15:29:17.970Z,29.47
2023-09-20T15:33:23.669Z,29.57
2023-09-20T15:37:27.314Z,29.55
2023-09-20T15:41:28.780Z,29.36
2023-09-20T15:45:30.740Z,29.33
2023-09-20T15:49:32.994Z,29.42
2023-09-20T15:53:34.596Z,29.43
2023-09-20T15:57:37.263Z,29.39
2023-09-20T16:01:38.701Z,29.72
2023-09-20T16:05:40.068Z,28.97
2023-09-20T16:09:41.545Z,28.93
2023-09-20T16:13:43.107Z,29.06
2023-09-20T16:17:44.763Z,29.04
2023-09-20T16:21:46.952Z,28.94
2023-09-20T16:25:48.363Z,29.03
2023-09-20T16:29:51.070Z,29.05
2023-09-20T16:33:54.882Z,28.85
2023-09-20T16:37:56.380Z,28.98
2023-09-20T16:42:01.185Z,28.93
2023-09-20T16:46:02.797Z,28.49
2023-09-20T16:50:04.544Z,28.89
2023-09-20T16:54:06.087Z,28.49
2023-09-20T16:58:07.727Z,28.63
2023-09-20T17:02:10.847Z,28.59
2023-09-20T17:06:12.579Z,28.59
2023-09-20T17:10:16.983Z,28.58
2023-09-20T17:14:19.857Z,28.56
2023-09-20T17:18:22.960Z,28.52
2023-09-20T17:22:24.534Z,28.36
2023-09-20T17:26:26.073Z,28.22
2023-09-20T17:30:27.500Z,28.25
2023-09-20T17:34:29.975Z,28.17
2023-09-20T17:38:31.361Z,27.98
2023-09-20T17:42:34.302Z,27.95
2023-09-20T17:46:36.453Z,28.15
2023-09-20T17:50:39.415Z,27.94
2023-09-20T17:54:41.745Z,27.92
2023-09-20T17:58:43.123Z,27.75
2023-09-20T18:02:44.653Z,27.67
2023-09-20T18:06:46.166Z,27.83
2023-09-20T18:10:50.088Z,27.57
2023-09-20T18:14:51.612Z,27.65
2023-09-20T18:18:55.115Z,27.57
2023-09-20T18:22:56.742Z,27.61
2023-09-20T18:26:58.613Z,27.44
2023-09-20T18:31:01.271Z,27.34
2023-09-20T18:35:02.669Z,27.43
2023-09-20T18:39:04.431Z,27.44
2023-09-20T18:43:05.862Z,27.41
2023-09-20T18:47:12.835Z,27.48
2023-09-20T18:51:16.958Z,27.23
2023-09-20T18:55:18.453Z,27.17
2023-09-20T18:59:19.976Z,27.10
2023-09-20T19:03:23.914Z,26.96
2023-09-20T19:07:25.339Z,27.02
2023-09-20T19:11:27.371Z,26.92
2023-09-20T19:15:29.355Z,27.00
2023-09-20T19:19:30.737Z,27.10
2023-09-20T19:23:32.304Z,26.78
2023-09-20T19:27:34.008Z,26.85
2023-09-20T19:31:35.464Z,26.68
2023-09-20T19:35:38.527Z,26.57
2023-09-20T19:39:40.039Z,26.30
2023-09-20T19:43:42.928Z,26.42
2023-09-20T19:47:45.718Z,26.48
2023-09-20T19:51:47.967Z,26.31
2023-09-20T19:55:49.555Z,26.30
2023-09-20T19:59:50.898Z,26.44
2023-09-20T20:03:52.461Z,26.30
2023-09-20T20:07:59.586Z,26.24
2023-09-20T20:12:02.641Z,26.06
2023-09-20T20:16:04.228Z,26.05
2023-09-20T20:20:28.125Z,25.93
2023-09-20T20:24:31.471Z,25.94
2023-09-20T20:28:38.738Z,25.82
2023-09-20T20:32:41.798Z,25.84
2023-09-20T20:36:43.902Z,25.80
2023-09-20T20:40:48.116Z,25.79
2023-09-20T20:44:49.475Z,25.76
2023-09-20T20:48:52.503Z,25.52
2023-09-20T20:52:54.572Z,25.42
2023-09-20T20:56:56.012Z,25.51
2023-09-20T21:00:57.620Z,25.38
2023-09-20T21:04:59.019Z,25.31
2023-09-20T21:09:00.491Z,25.32
2023-09-20T21:13:05.096Z,25.28
2023-09-20T21:17:06.495Z,25.40
2023-09-20T21:21:08.513Z,25.30
2023-09-20T21:25:13.108Z,25.25
2023-09-20T21:29:14.496Z,25.16
2023-09-20T21:33:17.569Z,25.16
2023-09-20T21:37:20.089Z,25.03
2023-09-20T21:41:21.451Z,25.05
2023-09-20T21:45:23.329Z,24.98
2023-09-20T21:49:25.246Z,25.03
2023-09-20T21:53:26.644Z,24.91
2023-09-20T21:57:28.264Z,24.91
2023-09-20T22:01:29.678Z,25.02
2023-09-20T22:05:33.416Z,25.04
2023-09-20T22:09:37.569Z,24.99
2023-09-20T22:13:39.306Z,25.07
2023-09-20T22:17:43.976Z,24.91
2023-09-20T22:21:49.170Z,24.80
2023-09-20T22:25:50.778Z,24.94
2023-09-20T22:29:52.273Z,25.02
2023-09-20T22:33:54.179Z,24.77
2023-09-20T22:37:58.910Z,24.99
2023-09-20T22:42:00.343Z,24.98
2023-09-20T22:46:02.002Z,24.91
2023-09-20T22:50:05.728Z,24.85
2023-09-20T22:54:12.321Z,24.94
2023-09-20T22:58:15.524Z,25.01
2023-09-20T23:02:16.931Z,24.93
2023-09-20T23:06:19.732Z,25.03
2023-09-20T23:10:25.295Z,24.84
2023-09-20T23:14:26.755Z,24.81
2023-09-20T23:18:29.204Z,24.64
2023-09-20T23:22:32.773Z,24.69
2023-09-20T23:26:37.399Z,24.72
2023-09-20T23:30:45.918Z,24.53
2023-09-20T23:34:47.473Z,24.59
2023-09-20T23:38:49.578Z,24.48
2023-09-20T23:42:57.117Z,24.72
2023-09-20T23:46:58.967Z,24.65
2023-09-20T23:51:07.566Z,24.55
2023-09-20T23:55:12.718Z,24.70
2023-09-20T23:59:14.769Z,24.52
